createdAt,value
2023-08-17T00:02:08.914Z,6.30
2023-08-17T00:04:54.194Z,6.45
2023-08-17T00:07:39.585Z,6.15
2023-08-17T00:10:25.067Z,7.05
2023-08-17T00:13:10.425Z,6.85
2023-08-17T00:15:55.906Z,8.35
2023-08-17T00:18:41.474Z,6.20
2023-08-17T00:21:26.758Z,6.97
2023-08-17T00:24:12.474Z,7.70
2023-08-17T00:26:57.484Z,7.57
2023-08-17T00:29:43.029Z,7.55
2023-08-17T00:32:28.346Z,6.75
2023-08-17T00:35:14.157Z,6.57
2023-08-17T00:38:03.690Z,7.40
2023-08-17T00:40:49.031Z,7.00
2023-08-17T00:43:34.627Z,6.50
2023-08-17T00:46:21.448Z,8.13
2023-08-17T00:49:07.875Z,7.32
2023-08-17T00:51:53.165Z,6.05
2023-08-17T00:54:38.707Z,6.10
2023-08-17T00:57:24.762Z,7.18
2023-08-17T01:00:12.836Z,7.68
2023-08-17T01:02:58.334Z,7.25
2023-08-17T01:05:44.957Z,7.30
2023-08-17T01:08:31.145Z,7.07
2023-08-17T01:11:25.572Z,6.30
2023-08-17T01:14:32.094Z,8.02
2023-08-17T01:17:23.494Z,7.70
2023-08-17T01:20:13.393Z,7.35
2023-08-17T01:23:06.185Z,7.20
2023-08-17T01:25:51.142Z,7.97
2023-08-17T01:28:36.516Z,7.10
2023-08-17T01:31:32.996Z,7.25
2023-08-17T01:34:21.541Z,8.52
2023-08-17T01:37:11.463Z,7.43
2023-08-17T01:39:59.020Z,7.53
2023-08-17T01:42:44.962Z,8.00
2023-08-17T01:45:30.654Z,7.57
2023-08-17T01:48:15.802Z,7.32
2023-08-17T01:51:01.217Z,6.72
2023-08-17T01:53:47.241Z,6.95
2023-08-17T01:56:32.206Z,7.50
2023-08-17T01:59:17.686Z,6.85
2023-08-17T02:02:03.026Z,7.70
2023-08-17T02:04:48.395Z,7.47
2023-08-17T02:07:33.803Z,8.10
2023-08-17T02:10:19.227Z,7.15
2023-08-17T02:13:17.293Z,8.32
2023-08-17T02:16:03.374Z,6.90
2023-08-17T02:18:48.621Z,7.45
2023-08-17T02:21:33.858Z,8.02
2023-08-17T02:24:19.212Z,7.68
2023-08-17T02:27:04.738Z,7.20
2023-08-17T02:29:50.148Z,7.00
2023-08-17T02:32:35.367Z,7.30
2023-08-17T02:35:20.597Z,7.20
2023-08-17T02:38:06.009Z,6.70
2023-08-17T02:40:51.551Z,7.28
2023-08-17T02:43:37.009Z,6.57
2023-08-17T02:46:22.504Z,6.15
2023-08-17T02:49:07.835Z,6.03
2023-08-17T02:51:53.230Z,6.90
2023-08-17T02:54:38.530Z,6.22
2023-08-17T02:57:24.231Z,7.40
2023-08-17T03:00:10.462Z,7.10
2023-08-17T03:02:55.832Z,7.15
2023-08-17T03:05:41.414Z,7.22
2023-08-17T03:08:26.638Z,6.28
2023-08-17T03:11:12.234Z,6.15
2023-08-17T03:14:01.363Z,5.85
2023-08-17T03:16:46.533Z,6.10
2023-08-17T03:19:32.002Z,6.28
2023-08-17T03:22:17.348Z,7.63
2023-08-17T03:25:03.852Z,7.30
2023-08-17T03:27:49.392Z,6.18
2023-08-17T03:30:34.940Z,6.55
2023-08-17T03:33:20.337Z,8.35
2023-08-17T03:36:05.897Z,6.20
2023-08-17T03:38:51.025Z,6.70
2023-08-17T03:41:37.858Z,6.15
2023-08-17T03:44:22.833Z,6.22
2023-08-17T03:47:08.346Z,7.20
2023-08-17T03:49:53.767Z,6.53
2023-08-17T03:52:39.166Z,6.60
2023-08-17T03:55:24.556Z,5.95
2023-08-17T03:58:09.924Z,6.07
2023-08-17T04:00:55.480Z,6.30
2023-08-17T04:03:40.936Z,8.00
2023-08-17T04:06:26.453Z,6.35
2023-08-17T04:09:11.686Z,6.43
2023-08-17T04:11:58.591Z,6.70
2023-08-17T04:14:43.994Z,6.72
2023-08-17T04:17:29.674Z,7.97
2023-08-17T04:20:15.317Z,7.75
2023-08-17T04:23:00.729Z,7.22
2023-08-17T04:25:47.866Z,7.03
2023-08-17T04:28:33.068Z,7.38
2023-08-17T04:31:18.626Z,6.97
2023-08-17T04:34:04.236Z,7.18
2023-08-17T04:36:49.696Z,6.18
2023-08-17T04:39:34.897Z,6.28
2023-08-17T04:42:21.158Z,7.22
2023-08-17T04:45:06.719Z,6.30
2023-08-17T04:47:52.267Z,6.13
2023-08-17T04:50:37.477Z,6.60
2023-08-17T04:53:22.785Z,7.00
2023-08-17T04:56:08.228Z,6.70
2023-08-17T04:58:53.648Z,7.18
2023-08-17T05:01:42.238Z,5.78
2023-08-17T05:04:28.305Z,6.15
2023-08-17T05:07:13.534Z,5.88
2023-08-17T05:09:59.315Z,6.63
2023-08-17T05:12:44.906Z,6.88
2023-08-17T05:15:29.987Z,6.75
2023-08-17T05:18:15.769Z,6.53
2023-08-17T05:21:01.497Z,7.45
2023-08-17T05:23:46.654Z,7.00
2023-08-17T05:26:32.104Z,7.03
2023-08-17T05:29:17.349Z,7.22
2023-08-17T05:32:02.723Z,6.93
2023-08-17T05:34:48.893Z,7.97
2023-08-17T05:37:34.223Z,7.75
2023-08-17T05:40:20.149Z,7.20
2023-08-17T05:43:05.272Z,7.60
2023-08-17T05:45:51.077Z,7.60
2023-08-17T05:48:36.337Z,7.80
2023-08-17T05:51:21.792Z,7.47
2023-08-17T05:54:07.128Z,7.82
2023-08-17T05:56:52.314Z,8.48
2023-08-17T05:59:37.603Z,7.40
2023-08-17T06:02:22.720Z,7.30
2023-08-17T06:05:10.227Z,9.32
2023-08-17T06:07:56.568Z,9.85
2023-08-17T06:10:41.601Z,10.45
2023-08-17T06:13:27.166Z,9.40
2023-08-17T06:16:13.006Z,10.00
2023-08-17T06:18:58.454Z,10.02
2023-08-17T06:21:43.521Z,9.43
2023-08-17T06:24:28.942Z,9.13
2023-08-17T06:27:17.426Z,9.80
2023-08-17T06:30:04.258Z,9.40
2023-08-17T06:32:49.502Z,9.10
2023-08-17T06:35:34.746Z,9.55
2023-08-17T06:38:19.921Z,9.35
2023-08-17T06:41:05.390Z,9.43
2023-08-17T06:43:50.644Z,9.18
2023-08-17T06:46:36.311Z,8.60
2023-08-17T06:49:21.771Z,9.70
2023-08-17T06:52:07.170Z,9.23
2023-08-17T06:54:52.661Z,9.80
2023-08-17T06:57:38.599Z,9.13
2023-08-17T07:00:24.064Z,8.57
2023-08-17T07:03:09.538Z,9.50
2023-08-17T07:05:55.032Z,7.50
2023-08-17T07:08:40.336Z,8.68
2023-08-17T07:11:25.542Z,8.10
2023-08-17T07:14:11.016Z,7.25
2023-08-17T07:16:56.490Z,7.13
2023-08-17T07:22:30.696Z,8.15
2023-08-17T07:25:15.948Z,8.27
2023-08-17T07:28:01.483Z,7.38
2023-08-17T07:30:46.934Z,7.13
2023-08-17T07:33:32.182Z,7.20
2023-08-17T07:36:17.632Z,8.05
2023-08-17T07:39:03.077Z,8.05
2023-08-17T07:41:48.501Z,8.02
2023-08-17T07:44:34.364Z,7.82
2023-08-17T07:47:19.947Z,8.43
2023-08-17T07:50:06.823Z,7.35
2023-08-17T07:52:52.366Z,7.60
2023-08-17T07:55:37.648Z,7.88
2023-08-17T07:58:23.231Z,7.65
2023-08-17T08:01:08.523Z,8.35
2023-08-17T08:03:53.931Z,6.70
2023-08-17T08:06:39.200Z,6.90
2023-08-17T08:09:24.693Z,7.93
2023-08-17T08:12:10.225Z,8.23
2023-08-17T08:14:55.469Z,8.82
2023-08-17T08:17:41.798Z,8.07
2023-08-17T08:20:27.348Z,12.13
2023-08-17T08:23:12.761Z,8.13
2023-08-17T08:25:59.320Z,8.10
2023-08-17T08:28:44.776Z,8.05
2023-08-17T08:31:29.912Z,6.75
2023-08-17T08:34:15.150Z,4.68
2023-08-17T08:37:00.650Z,4.97
2023-08-17T08:39:51.361Z,5.30
2023-08-17T08:42:36.465Z,4.38
2023-08-17T08:45:24.133Z,4.13
2023-08-17T08:48:11.132Z,5.47
2023-08-17T08:50:57.679Z,4.35
2023-08-17T08:53:46.562Z,4.85
2023-08-17T08:56:39.248Z,4.65
2023-08-17T08:59:26.218Z,4.50
2023-08-17T09:02:20.668Z,4.95
2023-08-17T09:05:12.188Z,4.68
2023-08-17T09:07:59.179Z,5.40
2023-08-17T09:10:44.646Z,5.10
2023-08-17T09:13:30.104Z,5.57
2023-08-17T09:16:15.647Z,4.88
2023-08-17T09:19:01.135Z,5.38
2023-08-17T09:21:50.864Z,4.78
2023-08-17T09:24:37.622Z,5.75
2023-08-17T09:27:22.778Z,5.53
2023-08-17T09:30:10.983Z,4.90
2023-08-17T09:32:56.144Z,5.20
2023-08-17T09:35:43.545Z,5.65
2023-08-17T09:38:29.630Z,11.77
2023-08-17T09:41:15.099Z,5.45
2023-08-17T09:44:01.798Z,5.10
2023-08-17T09:46:47.605Z,6.40
2023-08-17T09:49:36.625Z,5.55
2023-08-17T09:52:25.239Z,4.95
2023-08-17T09:55:12.983Z,5.28
2023-08-17T09:57:58.929Z,5.38
2023-08-17T10:00:50.543Z,5.45
2023-08-17T10:03:40.244Z,5.85
2023-08-17T10:06:28.075Z,5.82
2023-08-17T10:09:19.017Z,5.50
2023-08-17T10:12:11.153Z,6.45
2023-08-17T10:15:20.173Z,6.45
2023-08-17T10:18:15.796Z,5.53
2023-08-17T10:21:14.264Z,5.53
2023-08-17T10:26:46.784Z,5.93
2023-08-17T10:29:32.942Z,5.70
2023-08-17T10:32:18.463Z,6.85
2023-08-17T10:35:05.654Z,5.20
2023-08-17T10:37:51.502Z,5.88
2023-08-17T10:40:38.772Z,5.80
2023-08-17T10:43:34.298Z,5.85
2023-08-17T10:46:19.549Z,5.35
2023-08-17T10:49:08.811Z,6.13
2023-08-17T10:52:05.117Z,5.68
2023-08-17T10:54:50.372Z,5.63
2023-08-17T10:57:43.398Z,5.50
2023-08-17T11:00:35.181Z,4.90
2023-08-17T11:03:21.716Z,7.90
2023-08-17T11:06:19.640Z,5.28
2023-08-17T11:09:09.085Z,5.10
2023-08-17T11:11:56.016Z,5.80
2023-08-17T11:14:41.405Z,4.93
2023-08-17T11:17:27.133Z,4.57
2023-08-17T11:20:15.073Z,4.85
2023-08-17T11:23:01.039Z,4.97
2023-08-17T11:25:46.667Z,5.00
2023-08-17T11:28:42.509Z,5.22
2023-08-17T11:31:28.901Z,4.00
2023-08-17T11:34:16.432Z,4.07
2023-08-17T11:37:05.269Z,3.90
2023-08-17T11:39:50.685Z,2.83
2023-08-17T11:42:37.717Z,2.88
2023-08-17T11:45:27.658Z,3.17
2023-08-17T11:48:13.590Z,2.90
2023-08-17T11:50:59.397Z,2.90
2023-08-17T11:53:49.516Z,3.33
2023-08-17T11:56:35.571Z,2.88
2023-08-17T11:59:20.864Z,3.05
2023-08-17T12:02:06.698Z,2.50
2023-08-17T12:04:52.577Z,3.20
2023-08-17T12:07:38.120Z,2.95
2023-08-17T12:10:26.117Z,3.40
2023-08-17T12:13:15.927Z,2.80
2023-08-17T12:16:01.625Z,2.80
2023-08-17T12:18:51.625Z,2.92
2023-08-17T12:21:36.901Z,2.72
2023-08-17T12:24:25.333Z,2.90
2023-08-17T12:27:11.354Z,3.05
2023-08-17T12:29:56.659Z,3.30
2023-08-17T12:32:42.208Z,3.10
2023-08-17T12:35:27.935Z,3.10
2023-08-17T12:38:12.931Z,3.42
2023-08-17T12:40:58.438Z,3.08
2023-08-17T12:43:43.793Z,3.10
2023-08-17T12:46:32.586Z,2.80
2023-08-17T12:49:18.571Z,2.80
2023-08-17T12:52:04.053Z,3.25
2023-08-17T12:54:52.873Z,3.47
2023-08-17T12:57:38.529Z,3.17
2023-08-17T13:00:23.979Z,3.25
2023-08-17T13:03:10.103Z,3.58
2023-08-17T13:05:56.410Z,3.50
2023-08-17T13:08:41.516Z,3.13
2023-08-17T13:11:27.042Z,3.20
2023-08-17T13:14:13.411Z,3.17
2023-08-17T13:16:58.807Z,3.30
2023-08-17T13:19:44.346Z,3.10
2023-08-17T13:22:29.879Z,3.30
2023-08-17T13:25:15.401Z,3.13
2023-08-17T13:28:00.769Z,3.15
2023-08-17T13:30:46.112Z,3.38
2023-08-17T13:33:31.884Z,3.00
2023-08-17T13:36:17.509Z,3.58
2023-08-17T13:39:03.010Z,4.30
2023-08-17T13:41:48.430Z,3.55
2023-08-17T13:44:33.926Z,3.70
2023-08-17T13:47:19.362Z,4.90
2023-08-17T13:50:05.244Z,4.80
2023-08-17T13:52:50.687Z,3.67
2023-08-17T13:55:36.080Z,6.85
2023-08-17T13:58:21.337Z,6.57
2023-08-17T14:01:06.909Z,4.22
2023-08-17T14:03:52.356Z,4.15
2023-08-17T14:06:37.784Z,4.05
2023-08-17T14:09:23.303Z,3.55
2023-08-17T14:12:08.582Z,3.65
2023-08-17T14:14:53.779Z,3.83
2023-08-17T14:17:39.241Z,3.47
2023-08-17T14:20:24.887Z,3.83
2023-08-17T14:23:10.284Z,3.25
2023-08-17T14:25:55.839Z,3.38
2023-08-17T14:28:44.461Z,3.58
2023-08-17T14:31:29.940Z,3.17
2023-08-17T14:34:16.587Z,3.70
2023-08-17T14:37:01.894Z,3.25
2023-08-17T14:39:47.782Z,3.63
2023-08-17T14:42:33.141Z,3.28
2023-08-17T14:45:18.350Z,3.97
2023-08-17T14:48:04.753Z,3.80
2023-08-17T14:50:49.901Z,3.65
2023-08-17T14:53:39.225Z,4.20
2023-08-17T14:56:24.993Z,6.07
2023-08-17T14:59:11.082Z,4.72
2023-08-17T15:01:57.615Z,6.82
2023-08-17T15:04:42.956Z,3.47
2023-08-17T15:07:29.267Z,4.15
2023-08-17T15:10:14.900Z,5.15
2023-08-17T15:13:00.252Z,4.05
2023-08-17T15:15:46.281Z,3.85
2023-08-17T15:18:31.612Z,4.85
2023-08-17T15:21:17.166Z,4.47
2023-08-17T15:24:03.438Z,4.70
2023-08-17T15:26:48.892Z,4.28
2023-08-17T15:29:34.204Z,4.63
2023-08-17T15:32:19.714Z,5.18
2023-08-17T15:35:05.491Z,4.38
2023-08-17T15:37:51.074Z,3.67
2023-08-17T15:40:36.265Z,4.60
2023-08-17T15:43:21.519Z,5.00
2023-08-17T15:46:07.137Z,4.85
2023-08-17T15:48:52.387Z,4.38
2023-08-17T15:51:37.957Z,5.57
2023-08-17T15:54:35.145Z,5.05
2023-08-17T15:57:22.472Z,5.85
2023-08-17T16:00:08.688Z,4.75
2023-08-17T16:02:53.961Z,4.88
2023-08-17T16:05:39.125Z,4.65
2023-08-17T16:08:33.612Z,4.05
2023-08-17T16:11:27.281Z,4.07
2023-08-17T16:14:12.857Z,4.40
2023-08-17T16:16:58.347Z,4.40
2023-08-17T16:19:44.153Z,4.10
2023-08-17T16:22:29.350Z,4.28
2023-08-17T16:25:14.701Z,3.75
2023-08-17T16:28:00.493Z,4.35
2023-08-17T16:30:45.891Z,4.80
2023-08-17T16:33:30.947Z,5.20
2023-08-17T16:36:16.296Z,5.30
2023-08-17T16:39:01.701Z,4.55
2023-08-17T16:41:49.867Z,4.45
2023-08-17T16:44:35.359Z,4.70
2023-08-17T16:47:22.783Z,4.63
2023-08-17T16:50:08.529Z,4.25
2023-08-17T16:52:53.631Z,4.55
2023-08-17T16:55:39.044Z,4.82
2023-08-17T16:58:24.396Z,6.13
2023-08-17T17:01:15.058Z,4.53
2023-08-17T17:04:00.851Z,4.45
2023-08-17T17:06:46.279Z,4.43
2023-08-17T17:09:31.578Z,4.82
2023-08-17T17:12:17.052Z,5.07
2023-08-17T17:15:02.356Z,6.10
2023-08-17T17:17:48.019Z,6.97
2023-08-17T17:20:34.656Z,4.80
2023-08-17T17:23:19.994Z,5.50
2023-08-17T17:26:08.648Z,5.32
2023-08-17T17:28:54.023Z,5.68
2023-08-17T17:31:39.116Z,6.07
2023-08-17T17:34:24.564Z,5.88
2023-08-17T17:37:09.832Z,5.35
2023-08-17T17:39:55.286Z,4.72
2023-08-17T17:42:40.457Z,5.30
2023-08-17T17:45:25.905Z,5.47
2023-08-17T17:48:12.530Z,4.65
2023-08-17T17:50:57.906Z,6.05
2023-08-17T17:53:43.037Z,5.10
2023-08-17T17:56:39.464Z,5.28
2023-08-17T17:59:24.919Z,5.75
2023-08-17T18:02:10.269Z,5.32
2023-08-17T18:04:55.542Z,4.32
2023-08-17T18:07:40.777Z,6.53
2023-08-17T18:10:26.100Z,5.40
2023-08-17T18:13:11.671Z,5.22
2023-08-17T18:15:57.078Z,5.05
2023-08-17T18:18:42.179Z,5.28
2023-08-17T18:21:31.398Z,6.55
2023-08-17T18:24:16.636Z,5.72
2023-08-17T18:27:02.273Z,4.85
2023-08-17T18:29:47.195Z,5.55
2023-08-17T18:32:32.902Z,6.10
2023-08-17T18:35:20.052Z,5.97
2023-08-17T18:38:06.966Z,6.50
2023-08-17T18:40:54.110Z,6.95
2023-08-17T18:43:40.117Z,10.10
2023-08-17T18:46:25.451Z,8.07
2023-08-17T18:49:10.860Z,7.30
2023-08-17T18:51:55.834Z,6.88
2023-08-17T18:54:58.258Z,5.97
2023-08-17T18:57:43.515Z,5.03
2023-08-17T19:00:29.105Z,6.22
2023-08-17T19:03:14.553Z,5.55
2023-08-17T19:05:59.925Z,5.40
2023-08-17T19:08:45.351Z,5.57
2023-08-17T19:11:30.745Z,5.50
2023-08-17T19:14:16.043Z,5.80
2023-08-17T19:17:01.586Z,6.60
2023-08-17T19:19:46.976Z,6.85
2023-08-17T19:22:32.371Z,7.03
2023-08-17T19:25:17.907Z,6.07
2023-08-17T19:28:03.490Z,6.03
2023-08-17T19:30:49.005Z,5.93
2023-08-17T19:33:34.252Z,6.80
2023-08-17T19:36:19.763Z,4.88
2023-08-17T19:39:05.830Z,5.32
2023-08-17T19:41:51.213Z,5.82
2023-08-17T19:44:36.750Z,5.63
2023-08-17T19:47:22.309Z,5.68
2023-08-17T19:50:08.260Z,6.55
2023-08-17T19:52:53.775Z,6.30
2023-08-17T19:55:39.176Z,6.43
2023-08-17T19:58:24.934Z,5.15
2023-08-17T20:01:13.133Z,6.22
2023-08-17T20:03:58.688Z,5.63
2023-08-17T20:09:29.981Z,5.40
2023-08-17T20:12:15.253Z,5.80
2023-08-17T20:15:00.640Z,5.63
2023-08-17T20:17:45.976Z,5.57
2023-08-17T20:20:31.470Z,5.97
2023-08-17T20:23:16.793Z,5.63
2023-08-17T20:26:02.331Z,5.78
2023-08-17T20:28:47.675Z,7.10
2023-08-17T20:31:33.322Z,6.20
2023-08-17T20:34:18.449Z,6.38
2023-08-17T20:37:03.775Z,7.80
2023-08-17T20:39:49.136Z,6.15
2023-08-17T20:42:34.467Z,6.63
2023-08-17T20:45:20.203Z,6.32
2023-08-17T20:48:05.393Z,5.85
2023-08-17T20:50:52.243Z,6.50
2023-08-17T20:53:37.891Z,7.53
2023-08-17T20:56:23.263Z,7.95
2023-08-17T20:59:08.604Z,6.28
2023-08-17T21:01:54.280Z,6.85
2023-08-17T21:04:39.722Z,8.25
2023-08-17T21:07:26.892Z,7.57
2023-08-17T21:10:13.626Z,7.10
2023-08-17T21:12:59.573Z,7.65
2023-08-17T21:15:44.954Z,7.93
2023-08-17T21:18:30.276Z,7.63
2023-08-17T21:21:15.796Z,7.00
2023-08-17T21:24:01.078Z,7.13
2023-08-17T21:26:46.372Z,7.35
2023-08-17T21:29:31.709Z,6.88
2023-08-17T21:32:17.033Z,7.65
2023-08-17T21:35:02.586Z,6.72
2023-08-17T21:37:47.882Z,7.03
2023-08-17T21:40:33.705Z,7.03
2023-08-17T21:43:18.716Z,6.18
2023-08-17T21:46:04.162Z,6.15
2023-08-17T21:48:49.595Z,5.82
2023-08-17T21:51:34.917Z,6.47
2023-08-17T21:54:20.402Z,5.95
2023-08-17T21:57:05.744Z,6.10
2023-08-17T21:59:52.130Z,7.03
2023-08-17T22:02:37.474Z,6.35
2023-08-17T22:05:22.819Z,6.95
2023-08-17T22:08:08.310Z,6.20
2023-08-17T22:10:53.842Z,6.05
2023-08-17T22:13:39.175Z,6.15
2023-08-17T22:16:25.430Z,6.55
2023-08-17T22:19:10.673Z,7.07
2023-08-17T22:21:56.160Z,6.70
2023-08-17T22:24:51.558Z,5.95
2023-08-17T22:27:37.278Z,6.03
2023-08-17T22:30:22.712Z,6.18
2023-08-17T22:33:07.943Z,5.90
2023-08-17T22:35:53.269Z,6.28
2023-08-17T22:38:38.808Z,5.53
2023-08-17T22:41:24.670Z,4.80
2023-08-17T22:44:10.213Z,7.57
2023-08-17T22:46:55.649Z,6.93
2023-08-17T22:49:40.977Z,7.03
2023-08-17T22:52:26.402Z,5.55
2023-08-17T22:55:11.640Z,5.68
2023-08-17T22:57:56.904Z,6.15
2023-08-17T23:00:42.537Z,6.95
2023-08-17T23:03:27.855Z,6.70
2023-08-17T23:06:13.289Z,6.13
2023-08-17T23:08:58.651Z,6.55
2023-08-17T23:11:44.022Z,6.50
2023-08-17T23:14:31.010Z,5.60
2023-08-17T23:17:16.265Z,6.53
2023-08-17T23:20:01.713Z,7.22
2023-08-17T23:22:47.723Z,7.00
2023-08-17T23:25:33.034Z,6.00
2023-08-17T23:28:18.347Z,6.65
2023-08-17T23:31:03.772Z,6.50
2023-08-17T23:33:49.306Z,7.20
2023-08-17T23:36:36.378Z,6.85
2023-08-17T23:39:21.844Z,6.43
2023-08-17T23:42:07.493Z,6.50
2023-08-17T23:44:52.451Z,6.57
2023-08-17T23:47:38.043Z,6.30
2023-08-17T23:50:23.568Z,7.20
2023-08-17T23:53:09.053Z,6.55
2023-08-17T23:55:54.427Z,6.97
2023-08-17T23:58:39.810Z,5.72
